BAW1858 LHBP-LWSK
Flight info
| Callsign | BAW1858 |
|---|---|
| Flight time | 1h 6m |
| Altitude | 35000 |
| Route | DUZL2L DUZLA DCT BABIT DCT TUVAR DCT SOMUN DCT VEBAR DCT PODOB DCT BUNEX/N0370F190 M867 KOGAT KOGA1A |
| Aircraft | A320/M-SDE3FGHIKRWXY/S |
Departure
| Time | 2026-04-20 04:59 |
|---|---|
| Airport | Budapest Liszt Ferenc International Airport (LHBP) |
Arrival
| Time | 2026-04-20 06:05 |
|---|---|
| Airport | Skopje International Airport (LWSK) |
| Time | Latitude | Longitude | Altitude | Speed | Heading |
|---|---|---|---|---|---|
| 2026-04-20 04:06 | 47.43141 | 19.25909 | 478 ft | 0 kts | 108° |
| 2026-04-20 04:46 | 47.43141 | 19.25907 | 470 ft | 3 kts | 108° |
| 2026-04-20 04:46 | 47.43148 | 19.25877 | 469 ft | 3 kts | 90° |
| 2026-04-20 04:46 | 47.43142 | 19.25845 | 463 ft | 3 kts | 44° |
| 2026-04-20 04:47 | 47.43124 | 19.25829 | 466 ft | 3 kts | 3° |
| 2026-04-20 04:47 | 47.43112 | 19.25829 | 465 ft | 0 kts | 351° |
| 2026-04-20 04:55 | 47.43117 | 19.25828 | 465 ft | 2 kts | 350° |
| 2026-04-20 04:55 | 47.43149 | 19.25765 | 459 ft | 15 kts | 307° |
| 2026-04-20 04:55 | 47.43218 | 19.25630 | 459 ft | 17 kts | 309° |
| 2026-04-20 04:55 | 47.43283 | 19.25515 | 465 ft | 13 kts | 309° |
| 2026-04-20 04:56 | 47.43336 | 19.25414 | 467 ft | 13 kts | 283° |
| 2026-04-20 04:56 | 47.43278 | 19.25298 | 463 ft | 18 kts | 222° |
| 2026-04-20 04:56 | 47.43178 | 19.25161 | 458 ft | 18 kts | 220° |
| 2026-04-20 04:56 | 47.43170 | 19.25150 | 459 ft | 0 kts | 220° |
| 2026-04-20 04:57 | 47.43154 | 19.25130 | 458 ft | 8 kts | 221° |
| 2026-04-20 04:58 | 47.43096 | 19.25034 | 458 ft | 15 kts | 244° |
| 2026-04-20 04:58 | 47.43098 | 19.24938 | 458 ft | 0 kts | 305° |
| 2026-04-20 04:58 | 47.43107 | 19.24921 | 458 ft | 11 kts | 309° |
| 2026-04-20 04:58 | 47.43297 | 19.24612 | 456 ft | 73 kts | 313° |
| 2026-04-20 04:59 | 47.43769 | 19.23853 | 459 ft | 124 kts | 312° |
| 2026-04-20 04:59 | 47.44425 | 19.22798 | 613 ft | 150 kts | 313° |
| 2026-04-20 04:59 | 47.45207 | 19.21650 | 973 ft | 169 kts | 315° |
| 2026-04-20 04:59 | 47.46141 | 19.20373 | 1259 ft | 192 kts | 314° |
| 2026-04-20 05:00 | 47.47078 | 19.18886 | 1784 ft | 208 kts | 310° |
| 2026-04-20 05:00 | 47.48079 | 19.17172 | 2269 ft | 227 kts | 309° |
| 2026-04-20 05:00 | 47.48936 | 19.15314 | 2377 ft | 208 kts | 293° |
| 2026-04-20 05:00 | 47.49339 | 19.13387 | 2486 ft | 185 kts | 278° |
| 2026-04-20 05:01 | 47.49395 | 19.11548 | 2505 ft | 189 kts | 265° |
| 2026-04-20 05:01 | 47.49070 | 19.09356 | 2455 ft | 245 kts | 246° |
| 2026-04-20 05:01 | 47.48068 | 19.07241 | 3242 ft | 257 kts | 225° |
| 2026-04-20 05:01 | 47.46588 | 19.05771 | 4346 ft | 253 kts | 203° |
| 2026-04-20 05:02 | 47.44935 | 19.04951 | 5585 ft | 248 kts | 199° |
| 2026-04-20 05:02 | 47.43286 | 19.04167 | 6516 ft | 251 kts | 199° |
| 2026-04-20 05:02 | 47.41610 | 19.03374 | 6859 ft | 253 kts | 199° |
| 2026-04-20 05:02 | 47.39929 | 19.02581 | 6978 ft | 253 kts | 199° |
| 2026-04-20 05:03 | 47.38248 | 19.01788 | 7002 ft | 253 kts | 199° |
| 2026-04-20 05:03 | 47.36600 | 19.00964 | 7003 ft | 252 kts | 205° |
| 2026-04-20 05:03 | 47.35022 | 18.99836 | 7011 ft | 251 kts | 208° |
| 2026-04-20 05:03 | 47.33450 | 18.98699 | 7015 ft | 252 kts | 207° |
| 2026-04-20 05:04 | 47.31860 | 18.97584 | 7194 ft | 256 kts | 206° |
| 2026-04-20 05:04 | 47.30237 | 18.96473 | 8129 ft | 257 kts | 206° |
| 2026-04-20 05:04 | 47.28596 | 18.95359 | 8964 ft | 265 kts | 206° |
| 2026-04-20 05:04 | 47.26847 | 18.94171 | 9463 ft | 283 kts | 207° |
| 2026-04-20 05:05 | 47.25046 | 18.92951 | 10168 ft | 293 kts | 207° |
| 2026-04-20 05:05 | 47.23121 | 18.91642 | 10479 ft | 317 kts | 207° |
| 2026-04-20 05:05 | 47.21047 | 18.90225 | 10798 ft | 337 kts | 207° |
| 2026-04-20 05:05 | 47.18888 | 18.88753 | 11457 ft | 345 kts | 207° |
| 2026-04-20 05:06 | 47.16690 | 18.87258 | 12237 ft | 350 kts | 207° |
| 2026-04-20 05:06 | 47.14460 | 18.85746 | 13031 ft | 355 kts | 207° |
| 2026-04-20 05:06 | 47.12193 | 18.84210 | 13840 ft | 360 kts | 207° |
| 2026-04-20 05:06 | 47.09907 | 18.82660 | 14574 ft | 364 kts | 207° |
| 2026-04-20 05:07 | 47.07593 | 18.81091 | 15323 ft | 368 kts | 207° |
| 2026-04-20 05:07 | 47.05265 | 18.79510 | 16060 ft | 371 kts | 207° |
| 2026-04-20 05:07 | 47.02903 | 18.77905 | 16794 ft | 374 kts | 207° |
| 2026-04-20 05:07 | 47.00527 | 18.76292 | 17516 ft | 378 kts | 207° |
| 2026-04-20 05:08 | 46.98100 | 18.74753 | 18237 ft | 384 kts | 201° |
| 2026-04-20 05:08 | 46.95481 | 18.73822 | 18879 ft | 391 kts | 189° |
| 2026-04-20 05:08 | 46.92738 | 18.73652 | 19526 ft | 398 kts | 178° |
| 2026-04-20 05:08 | 46.90006 | 18.74141 | 20194 ft | 403 kts | 173° |
| 2026-04-20 05:09 | 46.87212 | 18.74708 | 20891 ft | 407 kts | 174° |
| 2026-04-20 05:09 | 46.84387 | 18.75270 | 21579 ft | 411 kts | 174° |
| 2026-04-20 05:09 | 46.81532 | 18.75831 | 22216 ft | 416 kts | 174° |
| 2026-04-20 05:09 | 46.78644 | 18.76390 | 22859 ft | 420 kts | 174° |
| 2026-04-20 05:10 | 46.75727 | 18.76953 | 23507 ft | 424 kts | 174° |
| 2026-04-20 05:10 | 46.72770 | 18.77524 | 24075 ft | 429 kts | 174° |
| 2026-04-20 05:10 | 46.69829 | 18.78095 | 24620 ft | 432 kts | 174° |
| 2026-04-20 05:10 | 46.66832 | 18.78682 | 25168 ft | 436 kts | 174° |
| 2026-04-20 05:11 | 46.63806 | 18.79274 | 25709 ft | 439 kts | 174° |
| 2026-04-20 05:11 | 46.60768 | 18.79871 | 26243 ft | 442 kts | 174° |
| 2026-04-20 05:11 | 46.57706 | 18.80474 | 26760 ft | 446 kts | 174° |
| 2026-04-20 05:11 | 46.54616 | 18.81076 | 27267 ft | 449 kts | 174° |
| 2026-04-20 05:12 | 46.51507 | 18.81678 | 27755 ft | 452 kts | 174° |
| 2026-04-20 05:12 | 46.48372 | 18.82284 | 28250 ft | 456 kts | 174° |
| 2026-04-20 05:12 | 46.45214 | 18.82892 | 28718 ft | 459 kts | 174° |
| 2026-04-20 05:12 | 46.42032 | 18.83504 | 29160 ft | 462 kts | 174° |
| 2026-04-20 05:13 | 46.38830 | 18.84122 | 29584 ft | 465 kts | 174° |
| 2026-04-20 05:13 | 46.35604 | 18.84750 | 30011 ft | 468 kts | 174° |
| 2026-04-20 05:13 | 46.32371 | 18.85380 | 30427 ft | 469 kts | 174° |
| 2026-04-20 05:13 | 46.29139 | 18.86008 | 30937 ft | 467 kts | 174° |
| 2026-04-20 05:14 | 46.25915 | 18.86629 | 31420 ft | 466 kts | 174° |
| 2026-04-20 05:14 | 46.22697 | 18.87242 | 31941 ft | 465 kts | 174° |
| 2026-04-20 05:14 | 46.19534 | 18.87843 | 32446 ft | 464 kts | 174° |
| 2026-04-20 05:14 | 46.16334 | 18.88455 | 32933 ft | 463 kts | 174° |
| 2026-04-20 05:15 | 46.13141 | 18.89065 | 33436 ft | 462 kts | 174° |
| 2026-04-20 05:15 | 46.09957 | 18.89677 | 33942 ft | 461 kts | 174° |
| 2026-04-20 05:15 | 46.06773 | 18.90289 | 34389 ft | 460 kts | 175° |
| 2026-04-20 05:15 | 46.03598 | 18.90897 | 34805 ft | 459 kts | 175° |
| 2026-04-20 05:16 | 46.00417 | 18.91503 | 34991 ft | 460 kts | 175° |
| 2026-04-20 05:16 | 45.94079 | 18.92705 | 35033 ft | 463 kts | 175° |
| 2026-04-20 05:17 | 45.87671 | 18.93915 | 35026 ft | 463 kts | 175° |
| 2026-04-20 05:17 | 45.81270 | 18.95113 | 35028 ft | 463 kts | 175° |
| 2026-04-20 05:18 | 45.74870 | 18.96307 | 35035 ft | 463 kts | 175° |
| 2026-04-20 05:18 | 45.69541 | 18.97291 | 35043 ft | 464 kts | 175° |
| 2026-04-20 05:19 | 45.63128 | 18.98475 | 35047 ft | 464 kts | 175° |
| 2026-04-20 05:19 | 45.56712 | 18.99668 | 35055 ft | 464 kts | 175° |
| 2026-04-20 05:20 | 45.50335 | 19.00853 | 35049 ft | 464 kts | 175° |
| 2026-04-20 05:20 | 45.43913 | 19.02037 | 35050 ft | 464 kts | 175° |
| 2026-04-20 05:21 | 45.37493 | 19.03217 | 35045 ft | 464 kts | 175° |
| 2026-04-20 05:21 | 45.31107 | 19.04380 | 35043 ft | 464 kts | 175° |
| 2026-04-20 05:22 | 45.24689 | 19.05545 | 35031 ft | 465 kts | 175° |
| 2026-04-20 05:22 | 45.18260 | 19.06723 | 35030 ft | 465 kts | 175° |
| 2026-04-20 05:23 | 45.11831 | 19.07794 | 35025 ft | 463 kts | 180° |
| 2026-04-20 05:23 | 45.05416 | 19.08126 | 35028 ft | 464 kts | 180° |
| 2026-04-20 05:24 | 44.98950 | 19.08463 | 35027 ft | 464 kts | 180° |
| 2026-04-20 05:24 | 44.92492 | 19.08798 | 35030 ft | 464 kts | 180° |
| 2026-04-20 05:25 | 44.86025 | 19.09137 | 35028 ft | 464 kts | 180° |
| 2026-04-20 05:25 | 44.79594 | 19.09470 | 35034 ft | 465 kts | 180° |
| 2026-04-20 05:26 | 44.73127 | 19.09799 | 35031 ft | 465 kts | 180° |
| 2026-04-20 05:26 | 44.66657 | 19.10132 | 35035 ft | 465 kts | 180° |
| 2026-04-20 05:27 | 44.60188 | 19.10467 | 35035 ft | 465 kts | 180° |
| 2026-04-20 05:27 | 44.53756 | 19.11204 | 35037 ft | 466 kts | 175° |
| 2026-04-20 05:28 | 44.47305 | 19.12404 | 35105 ft | 464 kts | 176° |
| 2026-04-20 05:28 | 44.40954 | 19.13601 | 35019 ft | 457 kts | 177° |
| 2026-04-20 05:29 | 44.34626 | 19.14658 | 35014 ft | 458 kts | 177° |
| 2026-04-20 05:29 | 44.28318 | 19.15650 | 35010 ft | 458 kts | 178° |
| 2026-04-20 05:30 | 44.21955 | 19.16665 | 35016 ft | 459 kts | 177° |
| 2026-04-20 05:30 | 44.15606 | 19.17700 | 35015 ft | 459 kts | 177° |
| 2026-04-20 05:31 | 44.09279 | 19.17759 | 35015 ft | 454 kts | 187° |
| 2026-04-20 05:31 | 44.02998 | 19.17374 | 35017 ft | 454 kts | 186° |
| 2026-04-20 05:32 | 43.96674 | 19.17004 | 35022 ft | 454 kts | 186° |
| 2026-04-20 05:32 | 43.90349 | 19.16633 | 35012 ft | 455 kts | 186° |
| 2026-04-20 05:33 | 43.84014 | 19.16254 | 35012 ft | 455 kts | 186° |
| 2026-04-20 05:33 | 43.77672 | 19.15880 | 35025 ft | 456 kts | 186° |
| 2026-04-20 05:34 | 43.71372 | 19.15508 | 35017 ft | 456 kts | 186° |
| 2026-04-20 05:34 | 43.61845 | 19.14953 | 35029 ft | 456 kts | 186° |
| 2026-04-20 05:35 | 43.55496 | 19.14631 | 35025 ft | 458 kts | 182° |
| 2026-04-20 05:35 | 43.49176 | 19.16100 | 35029 ft | 465 kts | 166° |
| 2026-04-20 05:36 | 43.43014 | 19.18701 | 35027 ft | 465 kts | 166° |
| 2026-04-20 05:36 | 43.36807 | 19.21271 | 35034 ft | 466 kts | 166° |
| 2026-04-20 05:37 | 43.30578 | 19.23838 | 35047 ft | 466 kts | 166° |
| 2026-04-20 05:37 | 43.24366 | 19.26405 | 35051 ft | 466 kts | 165° |
| 2026-04-20 05:38 | 43.18540 | 19.30334 | 35054 ft | 470 kts | 146° |
| 2026-04-20 05:38 | 43.13898 | 19.36575 | 35056 ft | 472 kts | 129° |
| 2026-04-20 05:39 | 43.09763 | 19.43610 | 35058 ft | 472 kts | 130° |
| 2026-04-20 05:39 | 43.05616 | 19.50581 | 35062 ft | 472 kts | 130° |
| 2026-04-20 05:40 | 43.01499 | 19.57483 | 35061 ft | 471 kts | 130° |
| 2026-04-20 05:40 | 42.97360 | 19.64446 | 35065 ft | 471 kts | 130° |
| 2026-04-20 05:41 | 42.93222 | 19.71393 | 35064 ft | 471 kts | 130° |
| 2026-04-20 05:41 | 42.89083 | 19.78322 | 35065 ft | 470 kts | 130° |
| 2026-04-20 05:42 | 42.84966 | 19.85211 | 35070 ft | 470 kts | 130° |
| 2026-04-20 05:42 | 42.80821 | 19.92115 | 35069 ft | 470 kts | 130° |
| 2026-04-20 05:43 | 42.76665 | 19.99018 | 35061 ft | 470 kts | 130° |
| 2026-04-20 05:43 | 42.72498 | 20.05908 | 35058 ft | 470 kts | 130° |
| 2026-04-20 05:44 | 42.68348 | 20.12768 | 35008 ft | 469 kts | 130° |
| 2026-04-20 05:44 | 42.66293 | 20.16166 | 34125 ft | 475 kts | 130° |
| 2026-04-20 05:44 | 42.64174 | 20.19661 | 32997 ft | 481 kts | 130° |
| 2026-04-20 05:45 | 42.62033 | 20.23185 | 31964 ft | 484 kts | 130° |
| 2026-04-20 05:45 | 42.59890 | 20.26708 | 31147 ft | 482 kts | 130° |
| 2026-04-20 05:45 | 42.57751 | 20.30218 | 30355 ft | 480 kts | 130° |
| 2026-04-20 05:45 | 42.55627 | 20.33700 | 29574 ft | 477 kts | 130° |
| 2026-04-20 05:46 | 42.53518 | 20.37155 | 28849 ft | 473 kts | 130° |
| 2026-04-20 05:46 | 42.51427 | 20.40578 | 28157 ft | 468 kts | 130° |
| 2026-04-20 05:46 | 42.49352 | 20.43967 | 27405 ft | 465 kts | 130° |
| 2026-04-20 05:46 | 42.47318 | 20.47286 | 26850 ft | 458 kts | 130° |
| 2026-04-20 05:47 | 42.45287 | 20.50595 | 26180 ft | 455 kts | 130° |
| 2026-04-20 05:47 | 42.43270 | 20.53875 | 25620 ft | 450 kts | 130° |
| 2026-04-20 05:47 | 42.41274 | 20.57115 | 25068 ft | 445 kts | 130° |
| 2026-04-20 05:47 | 42.39300 | 20.60320 | 24520 ft | 440 kts | 130° |
| 2026-04-20 05:48 | 42.37369 | 20.63457 | 24017 ft | 436 kts | 130° |
| 2026-04-20 05:48 | 42.35437 | 20.66598 | 23492 ft | 432 kts | 130° |
| 2026-04-20 05:48 | 42.33518 | 20.69717 | 22957 ft | 428 kts | 130° |
| 2026-04-20 05:48 | 42.31619 | 20.72795 | 22458 ft | 423 kts | 130° |
| 2026-04-20 05:49 | 42.29732 | 20.75841 | 21964 ft | 420 kts | 130° |
| 2026-04-20 05:49 | 42.27860 | 20.78863 | 21461 ft | 418 kts | 130° |
| 2026-04-20 05:49 | 42.25995 | 20.81872 | 20943 ft | 417 kts | 130° |
| 2026-04-20 05:49 | 42.24135 | 20.84868 | 20426 ft | 415 kts | 130° |
| 2026-04-20 05:50 | 42.22307 | 20.87811 | 19894 ft | 415 kts | 130° |
| 2026-04-20 05:50 | 42.20458 | 20.90787 | 19355 ft | 413 kts | 130° |
| 2026-04-20 05:50 | 42.18610 | 20.93760 | 18792 ft | 412 kts | 130° |
| 2026-04-20 05:50 | 42.16769 | 20.96714 | 18232 ft | 411 kts | 130° |
| 2026-04-20 05:51 | 42.14946 | 20.99631 | 17943 ft | 396 kts | 130° |
| 2026-04-20 05:51 | 42.13205 | 21.02424 | 17288 ft | 382 kts | 130° |
| 2026-04-20 05:51 | 42.11602 | 21.05237 | 16629 ft | 378 kts | 122° |
| 2026-04-20 05:51 | 42.10396 | 21.08365 | 16126 ft | 375 kts | 112° |
| 2026-04-20 05:52 | 42.09410 | 21.11609 | 15622 ft | 373 kts | 112° |
| 2026-04-20 05:52 | 42.08425 | 21.14834 | 15118 ft | 372 kts | 112° |
| 2026-04-20 05:52 | 42.07440 | 21.18044 | 14614 ft | 370 kts | 112° |
| 2026-04-20 05:52 | 42.06455 | 21.21237 | 14204 ft | 366 kts | 112° |
| 2026-04-20 05:53 | 42.05495 | 21.24352 | 13650 ft | 366 kts | 112° |
| 2026-04-20 05:53 | 42.04528 | 21.27484 | 13365 ft | 357 kts | 112° |
| 2026-04-20 05:53 | 42.03600 | 21.30491 | 13169 ft | 338 kts | 112° |
| 2026-04-20 05:53 | 42.02714 | 21.33364 | 12642 ft | 328 kts | 112° |
| 2026-04-20 05:54 | 42.01847 | 21.36176 | 12025 ft | 322 kts | 112° |
| 2026-04-20 05:54 | 42.00992 | 21.38946 | 11516 ft | 314 kts | 112° |
| 2026-04-20 05:54 | 42.00163 | 21.41627 | 11220 ft | 308 kts | 112° |
| 2026-04-20 05:54 | 41.99621 | 21.43374 | 11088 ft | 305 kts | 113° |
| 2026-04-20 05:55 | 41.98806 | 21.46000 | 10992 ft | 303 kts | 113° |
| 2026-04-20 05:55 | 41.97980 | 21.48657 | 10486 ft | 313 kts | 113° |
| 2026-04-20 05:55 | 41.97145 | 21.51339 | 10279 ft | 306 kts | 113° |
| 2026-04-20 05:55 | 41.96335 | 21.53942 | 10114 ft | 299 kts | 113° |
| 2026-04-20 05:56 | 41.95539 | 21.56503 | 9840 ft | 295 kts | 113° |
| 2026-04-20 05:56 | 41.94743 | 21.59052 | 9314 ft | 299 kts | 114° |
| 2026-04-20 05:56 | 41.93609 | 21.61473 | 8465 ft | 314 kts | 133° |
| 2026-04-20 05:56 | 41.91883 | 21.63339 | 7622 ft | 320 kts | 153° |
| 2026-04-20 05:57 | 41.89852 | 21.64337 | 7005 ft | 311 kts | 166° |
| 2026-04-20 05:57 | 41.87783 | 21.65053 | 6424 ft | 302 kts | 166° |
| 2026-04-20 05:57 | 41.85789 | 21.65744 | 6066 ft | 286 kts | 166° |
| 2026-04-20 05:57 | 41.83954 | 21.66463 | 5992 ft | 262 kts | 158° |
| 2026-04-20 05:58 | 41.82407 | 21.67648 | 5995 ft | 249 kts | 142° |
| 2026-04-20 05:58 | 41.81201 | 21.69257 | 6002 ft | 242 kts | 127° |
| 2026-04-20 05:58 | 41.80276 | 21.71144 | 5580 ft | 251 kts | 122° |
| 2026-04-20 05:58 | 41.79330 | 21.73195 | 4901 ft | 266 kts | 122° |
| 2026-04-20 05:59 | 41.78295 | 21.75338 | 4221 ft | 280 kts | 130° |
| 2026-04-20 05:59 | 41.76740 | 21.76802 | 4014 ft | 270 kts | 164° |
| 2026-04-20 05:59 | 41.74945 | 21.76816 | 3990 ft | 253 kts | 200° |
| 2026-04-20 05:59 | 41.73561 | 21.75522 | 3987 ft | 237 kts | 234° |
| 2026-04-20 06:00 | 41.72962 | 21.73566 | 3993 ft | 223 kts | 265° |
| 2026-04-20 06:00 | 41.73162 | 21.71591 | 3996 ft | 209 kts | 293° |
| 2026-04-20 06:00 | 41.73989 | 21.70070 | 3996 ft | 198 kts | 321° |
| 2026-04-20 06:00 | 41.75191 | 21.69239 | 4007 ft | 195 kts | 345° |
| 2026-04-20 06:01 | 41.76511 | 21.68821 | 3898 ft | 195 kts | 346° |
| 2026-04-20 06:01 | 41.77803 | 21.68412 | 3798 ft | 192 kts | 346° |
| 2026-04-20 06:01 | 41.79052 | 21.68015 | 3703 ft | 178 kts | 345° |
| 2026-04-20 06:01 | 41.80240 | 21.67637 | 3634 ft | 173 kts | 346° |
| 2026-04-20 06:02 | 41.81402 | 21.67266 | 3604 ft | 171 kts | 346° |
| 2026-04-20 06:02 | 41.82560 | 21.66892 | 3584 ft | 172 kts | 345° |
| 2026-04-20 06:02 | 41.83722 | 21.66498 | 3291 ft | 171 kts | 345° |
| 2026-04-20 06:02 | 41.84873 | 21.66100 | 3021 ft | 171 kts | 345° |
| 2026-04-20 06:03 | 41.86023 | 21.65702 | 2772 ft | 170 kts | 345° |
| 2026-04-20 06:03 | 41.87168 | 21.65306 | 2507 ft | 169 kts | 346° |
| 2026-04-20 06:03 | 41.88304 | 21.64915 | 2260 ft | 168 kts | 346° |
| 2026-04-20 06:03 | 41.89400 | 21.64539 | 2018 ft | 157 kts | 346° |
| 2026-04-20 06:04 | 41.90423 | 21.64182 | 1795 ft | 149 kts | 346° |
| 2026-04-20 06:04 | 41.91529 | 21.63790 | 1647 ft | 178 kts | 345° |
| 2026-04-20 06:04 | 41.92671 | 21.63379 | 1438 ft | 160 kts | 345° |
| 2026-04-20 06:04 | 41.93724 | 21.62986 | 1120 ft | 154 kts | 346° |
| 2026-04-20 06:05 | 41.94739 | 21.62639 | 821 ft | 144 kts | 342° |
| 2026-04-20 06:05 | 41.95608 | 21.62324 | 778 ft | 111 kts | 347° |
| 2026-04-20 06:05 | 41.96236 | 21.62118 | 786 ft | 75 kts | 346° |
| 2026-04-20 06:05 | 41.96601 | 21.61993 | 786 ft | 42 kts | 346° |
| 2026-04-20 06:06 | 41.96868 | 21.61900 | 788 ft | 25 kts | 346° |
| 2026-04-20 06:06 | 41.97007 | 21.61911 | 788 ft | 17 kts | 67° |
| 2026-04-20 06:06 | 41.96972 | 21.62002 | 788 ft | 12 kts | 130° |
| 2026-04-20 06:06 | 41.96915 | 21.62099 | 788 ft | 0 kts | 128° |
| 2026-04-20 06:07 | 41.96912 | 21.62105 | 788 ft | 3 kts | 128° |
| 2026-04-20 06:08 | 41.96872 | 21.62155 | 788 ft | 11 kts | 153° |
| 2026-04-20 06:08 | 41.96783 | 21.62189 | 787 ft | 14 kts | 165° |
| 2026-04-20 06:08 | 41.96680 | 21.62225 | 786 ft | 16 kts | 166° |
| 2026-04-20 06:08 | 41.96567 | 21.62266 | 786 ft | 18 kts | 164° |
| 2026-04-20 06:09 | 41.96442 | 21.62310 | 785 ft | 19 kts | 164° |
| 2026-04-20 06:09 | 41.96307 | 21.62361 | 784 ft | 21 kts | 166° |
| 2026-04-20 06:09 | 41.96163 | 21.62408 | 784 ft | 16 kts | 163° |
| 2026-04-20 06:09 | 41.96136 | 21.62510 | 783 ft | 12 kts | 73° |
| 2026-04-20 06:10 | 41.96143 | 21.62566 | 783 ft | 0 kts | 83° |